Time;durP1;ratioP1;P1;durP2;ratioP2;P2;SDS_P1;SDS_P2;PMS_P1;PMS_P2;Temp;Humidity;BMP_temperature;BMP_pressure;BME280_temperature;BME280_humidity;BME280_pressure;Samples;Min_cycle;Max_cycle;Signal;HPM_P1;HPM_P2
2024/02/01 00:01:58;;;;;;;7.45;1.75;;;6.90;99.90;;;;;;5019519;28;20052;-65
2024/02/01 00:04:24;;;;;;;4.93;2.67;;;6.90;99.90;;;;;;5024276;28;20048;-65
2024/02/01 00:06:51;;;;;;;2.72;1.15;;;7.00;99.90;;;;;;5020109;28;20045;-65
2024/02/01 00:09:19;;;;;;;4.05;1.92;;;7.00;99.90;;;;;;5020253;28;20124;-65
2024/02/01 00:11:45;;;;;;;3.65;2.05;;;7.10;99.90;;;;;;5017367;28;20052;-65
2024/02/01 00:14:11;;;;;;;3.17;1.48;;;7.10;99.90;;;;;;5018416;28;20132;-65
2024/02/01 00:16:37;;;;;;;3.83;2.00;;;7.10;99.90;;;;;;5024108;28;20768;-65
2024/02/01 00:19:03;;;;;;;1.20;1.10;;;7.10;99.90;;;;;;5021587;28;20041;-66
2024/02/01 00:21:29;;;;;;;8.35;2.60;;;7.20;99.90;;;;;;5023862;28;20046;-66
2024/02/01 00:23:54;;;;;;;2.08;1.02;;;7.20;99.90;;;;;;5021443;28;20381;-66
2024/02/01 00:26:27;;;;;;;3.63;1.83;;;7.30;99.90;;;;;;5021589;28;20115;-66
2024/02/01 00:28:53;;;;;;;1.80;1.10;;;7.30;99.90;;;;;;5022345;28;20754;-66
2024/02/01 00:31:19;;;;;;;2.47;1.52;;;7.40;99.90;;;;;;5003937;28;20053;-67
2024/02/01 00:33:45;;;;;;;5.97;2.30;;;7.50;99.90;;;;;;5026244;28;20407;-66
2024/02/01 00:36:11;;;;;;;1.23;0.60;;;7.50;99.90;;;;;;5024075;28;20102;-66
2024/02/01 00:38:37;;;;;;;6.20;1.90;;;7.50;99.90;;;;;;5022167;28;20049;-65
2024/02/01 00:41:07;;;;;;;11.70;3.10;;;7.60;99.90;;;;;;5021164;28;20472;-66
2024/02/01 00:43:32;;;;;;;4.28;1.80;;;7.70;99.90;;;;;;5003151;28;20065;-65
2024/02/01 00:45:58;;;;;;;23.52;7.40;;;7.70;99.90;;;;;;5019670;28;20411;-66
2024/02/01 00:48:24;;;;;;;29.48;8.90;;;7.70;99.90;;;;;;5023073;28;20057;-66
2024/02/01 00:50:50;;;;;;;22.25;6.97;;;7.70;99.90;;;;;;5022061;28;20052;-66
2024/02/01 00:53:16;;;;;;;24.55;6.60;;;7.80;99.90;;;;;;5021903;28;20162;-66
2024/02/01 00:55:41;;;;;;;41.15;10.55;;;7.80;99.90;;;;;;5023507;28;20041;-66
2024/02/01 00:58:07;;;;;;;43.78;10.00;;;7.80;99.90;;;;;;5021180;28;20466;-66
2024/02/01 01:00:33;;;;;;;40.22;10.20;;;7.80;99.90;;;;;;5021619;28;20126;-66
2024/02/01 01:02:59;;;;;;;49.40;11.07;;;7.90;99.90;;;;;;5019190;28;20095;-65
2024/02/01 01:05:25;;;;;;;40.45;9.75;;;8.00;99.90;;;;;;5022528;28;20049;-66
2024/02/01 01:07:51;;;;;;;42.80;9.18;;;7.90;99.90;;;;;;5017103;28;20478;-65
2024/02/01 01:10:18;;;;;;;43.35;8.40;;;8.00;99.90;;;;;;5017649;28;20119;-65
2024/02/01 01:12:43;;;;;;;41.47;9.55;;;8.00;99.90;;;;;;5022873;28;20053;-65
2024/02/01 01:15:09;;;;;;;45.40;9.90;;;8.00;99.90;;;;;;5019304;28;20045;-65
2024/02/01 01:17:35;;;;;;;44.55;9.00;;;8.00;99.90;;;;;;5027296;28;20118;-65
2024/02/01 01:20:03;;;;;;;57.10;10.52;;;8.10;99.90;;;;;;5021005;28;20071;-65
2024/02/01 01:22:32;;;;;;;52.78;9.55;;;8.00;99.90;;;;;;5022616;28;20393;-64
2024/02/01 01:24:59;;;;;;;50.22;7.95;;;8.00;99.90;;;;;;5022059;28;20465;-65
2024/02/01 01:27:24;;;;;;;51.83;8.80;;;8.00;99.90;;;;;;5021500;28;20041;-65
2024/02/01 01:29:51;;;;;;;52.30;8.90;;;8.00;99.90;;;;;;5022041;28;20042;-65
2024/02/01 01:32:17;;;;;;;42.97;7.68;;;8.00;99.90;;;;;;5020547;28;20637;-66
2024/02/01 01:34:43;;;;;;;47.05;7.95;;;7.90;99.90;;;;;;5022505;28;20049;-65
2024/02/01 01:37:09;;;;;;;57.03;8.90;;;7.90;99.90;;;;;;5017990;28;20045;-65
2024/02/01 01:39:35;;;;;;;54.13;10.23;;;7.90;99.90;;;;;;5022917;28;20449;-65
2024/02/01 01:42:01;;;;;;;48.85;7.75;;;7.80;99.90;;;;;;5019806;28;20042;-65
2024/02/01 01:44:27;;;;;;;50.10;9.48;;;7.80;99.90;;;;;;5023294;28;20049;-65
2024/02/01 01:46:53;;;;;;;46.83;7.78;;;7.70;99.90;;;;;;5017680;28;20085;-64
2024/02/01 01:49:19;;;;;;;49.47;9.52;;;7.60;99.90;;;;;;5028848;28;20038;-65
2024/02/01 01:51:48;;;;;;;51.13;9.07;;;7.60;99.90;;;;;;5022077;28;20053;-66
2024/02/01 01:54:15;;;;;;;45.97;8.75;;;7.60;99.90;;;;;;5020610;28;20033;-65
2024/02/01 01:56:42;;;;;;;44.35;8.55;;;7.50;99.90;;;;;;5021848;28;20466;-65
2024/02/01 01:59:11;;;;;;;52.90;9.43;;;7.50;99.90;;;;;;5002544;28;20045;-65
2024/02/01 02:01:40;;;;;;;57.53;8.73;;;7.50;99.90;;;;;;5025783;28;20503;-64
2024/02/01 02:04:07;;;;;;;42.85;7.38;;;7.40;99.90;;;;;;5025709;28;20073;-64
2024/02/01 02:06:33;;;;;;;49.92;8.77;;;7.40;99.90;;;;;;5015142;28;20064;-65
2024/02/01 02:08:59;;;;;;;42.10;7.75;;;7.30;99.90;;;;;;5025098;28;20042;-65
2024/02/01 02:11:26;;;;;;;51.88;8.52;;;7.30;99.90;;;;;;5024198;28;20072;-65
2024/02/01 02:13:52;;;;;;;51.97;8.40;;;7.20;99.90;;;;;;5026789;28;20049;-64
2024/02/01 02:16:22;;;;;;;55.28;7.85;;;7.20;99.90;;;;;;5022424;28;20048;-65
2024/02/01 02:18:48;;;;;;;58.03;11.68;;;7.20;99.90;;;;;;5026205;28;20045;-65
2024/02/01 02:21:21;;;;;;;58.80;9.88;;;7.10;99.90;;;;;;5024393;28;20488;-64
2024/02/01 02:23:49;;;;;;;52.95;9.38;;;7.00;99.90;;;;;;5024494;28;20554;-65
2024/02/01 02:26:16;;;;;;;53.45;8.65;;;6.90;99.90;;;;;;5025603;28;20041;-65
2024/02/01 02:28:42;;;;;;;52.72;8.07;;;6.90;99.90;;;;;;5023279;28;20042;-65
2024/02/01 02:31:09;;;;;;;51.17;8.88;;;6.80;99.90;;;;;;5024463;28;20115;-65
2024/02/01 02:33:35;;;;;;;58.45;9.77;;;6.80;99.90;;;;;;5024356;28;20105;-65
2024/02/01 02:36:03;;;;;;;49.67;7.07;;;6.80;99.90;;;;;;5025278;28;20068;-64
2024/02/01 02:38:28;;;;;;;53.03;9.65;;;6.80;99.90;;;;;;5024445;28;20049;-65
2024/02/01 02:40:54;;;;;;;60.13;8.40;;;6.70;99.90;;;;;;5021251;28;20117;-65
2024/02/01 02:43:22;;;;;;;50.63;7.97;;;6.70;99.90;;;;;;5025519;28;20048;-65
2024/02/01 02:45:48;;;;;;;59.67;9.55;;;6.60;99.90;;;;;;5022756;28;20149;-65
2024/02/01 02:48:14;;;;;;;61.88;10.85;;;6.60;99.90;;;;;;5025275;28;20120;-65
2024/02/01 02:50:40;;;;;;;70.55;12.45;;;6.50;99.90;;;;;;5023441;28;20400;-65
2024/02/01 02:53:05;;;;;;;60.00;10.13;;;6.50;99.90;;;;;;5024843;28;20049;-65
2024/02/01 02:55:31;;;;;;;68.65;9.98;;;6.50;99.90;;;;;;5024511;28;20494;-65
2024/02/01 02:58:00;;;;;;;67.15;10.48;;;6.40;99.90;;;;;;5025438;28;20060;-65
2024/02/01 03:00:26;;;;;;;57.88;9.88;;;6.40;99.90;;;;;;5025042;28;20042;-65
2024/02/01 03:02:51;;;;;;;70.40;10.93;;;6.40;99.90;;;;;;5023487;28;20471;-65
2024/02/01 03:05:17;;;;;;;67.22;11.32;;;6.30;99.90;;;;;;5023621;28;20053;-65
2024/02/01 03:07:44;;;;;;;70.00;9.82;;;6.20;99.90;;;;;;5022591;28;20038;-65
2024/02/01 03:10:10;;;;;;;75.65;10.73;;;6.20;99.90;;;;;;5020138;28;20400;-65
2024/02/01 03:12:36;;;;;;;56.97;8.82;;;6.20;99.90;;;;;;5020353;28;20042;-65
2024/02/01 03:15:02;;;;;;;67.43;9.68;;;6.10;99.90;;;;;;5023942;28;20060;-65
2024/02/01 03:17:28;;;;;;;52.00;7.80;;;6.10;99.90;;;;;;5022432;28;20779;-64
2024/02/01 03:19:54;;;;;;;61.00;7.38;;;6.00;99.90;;;;;;5010503;28;20057;-65
2024/02/01 03:22:19;;;;;;;59.80;8.27;;;6.00;99.90;;;;;;5023360;28;20049;-65
2024/02/01 03:24:46;;;;;;;63.13;8.38;;;6.00;99.90;;;;;;5030810;28;20049;-65
2024/02/01 03:27:14;;;;;;;37.05;5.57;;;6.00;99.90;;;;;;5006104;28;20068;-65
2024/02/01 03:29:42;;;;;;;60.30;8.35;;;6.00;99.90;;;;;;5022130;28;20060;-64
2024/02/01 03:32:08;;;;;;;54.50;8.50;;;6.00;99.90;;;;;;5026155;28;20538;-65
2024/02/01 03:34:34;;;;;;;58.53;8.52;;;6.00;99.90;;;;;;5026919;28;20709;-65
2024/02/01 03:37:01;;;;;;;58.92;7.80;;;5.90;99.90;;;;;;5023663;28;20061;-65
2024/02/01 03:39:29;;;;;;;60.50;8.98;;;5.90;99.90;;;;;;5024300;28;20527;-65
2024/02/01 03:41:56;;;;;;;53.28;6.97;;;5.90;99.90;;;;;;5023077;28;20057;-65
2024/02/01 03:44:25;;;;;;;59.95;8.27;;;5.80;99.90;;;;;;5023946;28;20475;-65
2024/02/01 03:47:09;;;;;;;50.65;7.13;;;5.80;99.90;;;;;;5022569;28;20049;-65
2024/02/01 03:49:39;;;;;;;61.65;8.02;;;5.80;99.90;;;;;;5024461;28;20054;-65
2024/02/01 03:52:09;;;;;;;56.83;10.05;;;5.80;99.90;;;;;;5019064;28;20049;-65
2024/02/01 03:54:38;;;;;;;58.97;8.63;;;5.70;99.90;;;;;;5021328;28;20089;-65
2024/02/01 03:57:05;;;;;;;58.60;9.65;;;5.60;99.90;;;;;;5023967;28;20049;-65
2024/02/01 03:59:32;;;;;;;61.90;10.00;;;5.70;99.90;;;;;;5022363;28;20135;-64
2024/02/01 04:02:04;;;;;;;64.03;8.75;;;5.60;99.90;;;;;;4996038;28;20049;-64
2024/02/01 04:04:30;;;;;;;60.03;8.48;;;5.60;99.90;;;;;;4994063;28;20452;-65
2024/02/01 04:06:57;;;;;;;61.70;8.18;;;5.60;99.90;;;;;;5022121;28;20045;-65
2024/02/01 04:09:24;;;;;;;47.17;7.03;;;5.60;99.90;;;;;;5022091;28;20144;-64
2024/02/01 04:11:49;;;;;;;58.05;7.82;;;5.50;99.90;;;;;;5021243;28;20056;-65
2024/02/01 04:14:15;;;;;;;53.75;7.68;;;5.50;99.90;;;;;;5021167;28;20068;-65
2024/02/01 04:16:41;;;;;;;56.63;10.95;;;5.40;99.90;;;;;;5021506;28;20084;-65
2024/02/01 04:19:07;;;;;;;51.50;7.38;;;5.40;99.90;;;;;;5022205;28;20042;-65
2024/02/01 04:21:32;;;;;;;52.95;7.70;;;5.40;99.90;;;;;;5021558;28;20052;-64
2024/02/01 04:23:59;;;;;;;51.97;6.55;;;5.30;99.90;;;;;;5023081;28;20049;-64
2024/02/01 04:26:25;;;;;;;40.20;5.93;;;5.40;99.90;;;;;;5023019;28;20052;-65
2024/02/01 04:28:51;;;;;;;57.45;7.97;;;5.30;99.90;;;;;;5022616;28;20487;-64
2024/02/01 04:31:17;;;;;;;60.78;7.75;;;5.30;99.90;;;;;;5021842;28;20061;-64
2024/02/01 04:33:43;;;;;;;56.92;8.93;;;5.20;99.90;;;;;;5019178;28;20061;-65
2024/02/01 04:36:09;;;;;;;43.47;6.45;;;5.20;99.90;;;;;;5015714;28;20128;-65
2024/02/01 04:38:39;;;;;;;67.03;9.85;;;5.20;99.90;;;;;;5012390;28;20451;-65
2024/02/01 04:41:05;;;;;;;49.25;7.57;;;5.20;99.90;;;;;;5016808;28;20045;-64
2024/02/01 04:43:31;;;;;;;34.05;5.63;;;5.20;99.90;;;;;;5015984;28;20042;-65
2024/02/01 04:45:57;;;;;;;62.17;8.63;;;5.20;99.90;;;;;;5018236;28;20052;-65
2024/02/01 04:48:23;;;;;;;58.03;9.70;;;5.10;99.90;;;;;;5020924;28;20049;-65
2024/02/01 04:50:50;;;;;;;55.08;8.23;;;5.10;99.90;;;;;;5020613;28;20045;-65
2024/02/01 04:53:15;;;;;;;61.00;6.53;;;5.10;99.90;;;;;;5024021;28;20431;-65
2024/02/01 04:55:41;;;;;;;53.45;7.30;;;5.10;99.90;;;;;;5016487;28;20052;-64
2024/02/01 04:58:08;;;;;;;60.35;7.32;;;5.10;99.90;;;;;;5022725;28;20073;-65
2024/02/01 05:00:35;;;;;;;38.33;6.60;;;5.00;99.90;;;;;;5016314;28;20530;-64
2024/02/01 05:03:01;;;;;;;52.47;6.80;;;5.10;99.90;;;;;;5022614;28;20128;-65
2024/02/01 05:05:27;;;;;;;55.72;7.68;;;5.00;99.90;;;;;;5021870;28;20488;-64
2024/02/01 05:07:53;;;;;;;54.67;6.53;;;5.00;99.90;;;;;;5023632;28;20389;-65
2024/02/01 05:10:18;;;;;;;45.95;6.72;;;5.00;99.90;;;;;;5022770;28;20399;-65
2024/02/01 05:12:44;;;;;;;49.15;6.10;;;5.00;99.90;;;;;;5018601;28;20103;-64
2024/02/01 05:15:11;;;;;;;58.20;8.05;;;4.90;99.90;;;;;;5023234;28;20048;-65
2024/02/01 05:17:37;;;;;;;47.88;6.40;;;4.90;99.90;;;;;;5020161;28;20049;-64
2024/02/01 05:20:08;;;;;;;53.63;7.45;;;4.90;99.90;;;;;;5023377;28;20541;-65
2024/02/01 05:22:43;;;;;;;43.40;5.78;;;4.80;99.90;;;;;;5020999;28;20045;-65
2024/02/01 05:25:15;;;;;;;55.20;7.25;;;4.80;99.90;;;;;;5020769;28;20556;-65
2024/02/01 05:27:50;;;;;;;50.45;7.68;;;4.80;99.90;;;;;;5021808;28;20040;-65
2024/02/01 05:30:19;;;;;;;45.63;9.55;;;4.80;99.90;;;;;;5019520;28;20108;-65
2024/02/01 05:32:51;;;;;;;46.70;7.10;;;4.80;99.90;;;;;;5020371;28;20053;-65
2024/02/01 05:35:36;;;;;;;51.72;6.82;;;4.90;99.90;;;;;;5020515;28;20082;-65
2024/02/01 05:38:03;;;;;;;45.17;6.32;;;4.90;99.90;;;;;;5020866;28;20729;-64
2024/02/01 05:40:31;;;;;;;23.60;4.13;;;4.80;99.90;;;;;;5022511;28;20462;-64
2024/02/01 05:42:57;;;;;;;45.45;6.03;;;4.70;99.90;;;;;;5018735;28;20116;-65
2024/02/01 05:45:27;;;;;;;46.72;6.30;;;4.60;99.90;;;;;;5022685;28;20201;-65
2024/02/01 05:47:54;;;;;;;45.40;4.90;;;4.50;99.90;;;;;;5020070;28;20045;-64
2024/02/01 05:50:20;;;;;;;55.45;7.20;;;4.60;99.90;;;;;;5022971;28;20093;-65
2024/02/01 05:52:46;;;;;;;55.00;8.27;;;4.60;99.90;;;;;;5020850;28;20081;-64
2024/02/01 05:55:15;;;;;;;63.45;8.68;;;4.50;99.90;;;;;;5021582;28;20501;-65
2024/02/01 05:57:41;;;;;;;49.33;8.10;;;4.50;99.90;;;;;;5020835;28;20044;-65
2024/02/01 06:00:12;;;;;;;43.75;6.45;;;4.50;99.90;;;;;;5020830;28;20064;-64
2024/02/01 06:02:38;;;;;;;41.85;6.13;;;4.40;99.90;;;;;;5021635;28;20132;-65
2024/02/01 06:05:05;;;;;;;47.67;7.03;;;4.40;99.90;;;;;;5021065;28;20053;-65
2024/02/01 06:07:31;;;;;;;50.13;6.95;;;4.30;99.90;;;;;;5003544;28;20072;-64
2024/02/01 06:09:56;;;;;;;45.03;5.80;;;4.30;99.90;;;;;;5018931;28;20587;-64
2024/02/01 06:12:22;;;;;;;57.65;7.80;;;4.30;99.90;;;;;;5004341;28;20056;-64
2024/02/01 06:14:48;;;;;;;54.40;8.05;;;4.20;99.90;;;;;;5019469;28;20427;-65
2024/02/01 06:17:14;;;;;;;56.13;7.25;;;4.20;99.90;;;;;;5021300;28;20034;-65
2024/02/01 06:19:40;;;;;;;59.75;7.97;;;4.10;99.90;;;;;;5021239;28;20045;-64
2024/02/01 06:22:08;;;;;;;56.92;8.63;;;4.10;99.90;;;;;;5019563;28;20515;-64
2024/02/01 06:24:36;;;;;;;51.15;6.85;;;4.10;99.90;;;;;;5020960;28;20050;-65
2024/02/01 06:27:02;;;;;;;57.70;8.40;;;4.10;99.90;;;;;;5021030;28;20061;-65
2024/02/01 06:29:30;;;;;;;44.05;5.63;;;4.10;99.90;;;;;;5021853;28;20415;-64
2024/02/01 06:31:57;;;;;;;51.15;6.00;;;4.10;99.90;;;;;;5027708;28;20060;-64
2024/02/01 06:34:38;;;;;;;35.53;4.80;;;4.10;99.90;;;;;;5002705;28;20057;-64
2024/02/01 06:37:07;;;;;;;26.70;4.60;;;4.00;99.90;;;;;;5022180;28;20052;-64
2024/02/01 06:44:46;;;;;;;39.35;5.68;;;4.00;99.90;;;;;;5019843;28;20529;-64
2024/02/01 06:47:12;;;;;;;31.23;3.85;;;4.00;99.90;;;;;;5022949;28;20103;-64
2024/02/01 06:50:00;;;;;;;6.30;1.45;;;4.00;99.90;;;;;;5024839;28;20119;-64
2024/02/01 06:52:39;;;;;;;31.85;3.78;;;4.00;99.90;;;;;;5027995;28;20045;-65
2024/02/01 06:55:24;;;;;;;25.30;2.58;;;4.10;99.90;;;;;;5025150;28;20080;-64
2024/02/01 07:03:44;;;;;;;9.57;2.08;;;4.20;99.90;;;;;;5023185;28;20068;-65
2024/02/01 07:06:06;;;;;;;35.22;5.07;;;4.20;99.90;;;;;;5012160;28;20053;-64
2024/02/01 07:19:23;;;;;;;26.75;2.60;;;4.30;99.90;;;;;;5022254;28;20045;-65
2024/02/01 07:57:51;;;;;;;47.72;6.13;;;4.40;99.90;;;;;;5022341;28;20138;-65
2024/02/01 08:00:45;;;;;;;41.03;5.97;;;4.40;99.90;;;;;;5021416;28;20163;-64
2024/02/01 08:03:22;;;;;;;51.22;7.15;;;4.30;99.90;;;;;;5022791;28;20049;-65
2024/02/01 08:08:35;;;;;;;51.63;6.93;;;4.40;99.90;;;;;;5023484;28;20500;-65
2024/02/01 08:11:05;;;;;;;15.23;1.98;;;4.40;99.90;;;;;;5021107;28;20099;-64
2024/02/01 08:13:31;;;;;;;38.97;5.10;;;4.40;99.90;;;;;;5020653;28;20057;-65
2024/02/01 08:15:58;;;;;;;50.50;6.45;;;4.40;99.90;;;;;;5021740;28;20754;-64
2024/02/01 08:18:26;;;;;;;50.45;4.70;;;4.50;99.90;;;;;;5022273;28;20041;-65
2024/02/01 08:20:53;;;;;;;27.00;4.72;;;4.50;99.90;;;;;;5022066;28;20049;-65
2024/02/01 08:23:20;;;;;;;51.85;5.63;;;4.50;99.90;;;;;;5030673;28;20038;-65
2024/02/01 08:25:48;;;;;;;35.20;4.97;;;4.60;99.90;;;;;;5017737;28;20377;-65
2024/02/01 08:28:15;;;;;;;45.20;6.68;;;4.70;99.90;;;;;;5018711;28;20401;-65
2024/02/01 08:30:45;;;;;;;46.17;6.20;;;4.80;99.90;;;;;;5014096;28;20447;-65
2024/02/01 08:33:19;;;;;;;39.33;5.80;;;4.70;99.90;;;;;;5020721;28;20511;-64
2024/02/01 08:35:48;;;;;;;35.03;6.85;;;4.80;99.90;;;;;;5019453;28;20447;-64
2024/02/01 08:38:15;;;;;;;67.18;9.30;;;4.90;99.90;;;;;;5020642;28;20523;-65
2024/02/01 08:40:41;;;;;;;56.28;6.97;;;4.90;99.90;;;;;;5021166;28;20045;-65
2024/02/01 08:43:13;;;;;;;52.22;6.53;;;4.90;99.90;;;;;;5021689;28;20124;-65
2024/02/01 08:45:44;;;;;;;52.40;6.50;;;4.90;99.90;;;;;;5021195;28;20060;-64
2024/02/01 08:48:10;;;;;;;49.78;7.53;;;4.90;99.90;;;;;;5021893;28;20131;-65
2024/02/01 08:50:42;;;;;;;66.10;7.93;;;5.00;99.90;;;;;;5022827;28;20132;-64
2024/02/01 08:53:12;;;;;;;28.25;3.83;;;5.00;99.90;;;;;;5020749;28;20049;-65
2024/02/01 08:55:39;;;;;;;15.73;2.50;;;5.10;99.90;;;;;;5021451;28;20038;-65
2024/02/01 08:58:08;;;;;;;23.45;3.03;;;5.10;99.90;;;;;;5013734;28;20618;-64
2024/02/01 09:00:42;;;;;;;28.43;4.30;;;5.20;99.90;;;;;;5027002;28;20120;-64
2024/02/01 09:05:38;;;;;;;11.40;1.70;;;5.30;99.90;;;;;;5018820;28;20124;-64
2024/02/01 09:08:08;;;;;;;38.20;4.85;;;5.30;99.90;;;;;;5021188;28;20048;-65
2024/02/01 09:10:35;;;;;;;11.65;2.28;;;5.40;99.90;;;;;;5017394;28;20219;-65
2024/02/01 09:13:01;;;;;;;17.65;3.40;;;5.30;99.90;;;;;;5021146;28;20045;-64
2024/02/01 09:15:30;;;;;;;38.85;4.82;;;5.50;99.90;;;;;;5019291;28;20053;-65
2024/02/01 09:17:57;;;;;;;23.02;3.25;;;5.50;99.90;;;;;;5022400;28;20507;-65
2024/02/01 09:20:25;;;;;;;32.08;4.40;;;5.50;99.90;;;;;;5020455;28;20428;-64
2024/02/01 09:22:55;;;;;;;48.03;7.68;;;5.60;99.90;;;;;;5020649;28;20057;-65
2024/02/01 09:25:25;;;;;;;19.80;2.53;;;5.60;99.90;;;;;;5019629;28;20060;-65
2024/02/01 09:27:54;;;;;;;50.72;8.05;;;5.70;99.90;;;;;;5019297;28;20046;-65
2024/02/01 09:30:22;;;;;;;27.45;5.25;;;5.80;99.90;;;;;;5018710;28;20419;-65
2024/02/01 09:32:49;;;;;;;31.80;4.70;;;5.80;99.90;;;;;;5022654;28;20132;-65
2024/02/01 09:35:19;;;;;;;63.92;9.20;;;5.90;99.90;;;;;;5021430;28;20412;-65
2024/02/01 09:37:51;;;;;;;50.67;7.03;;;6.00;99.90;;;;;;5023869;28;20064;-64
2024/02/01 09:40:21;;;;;;;62.80;9.55;;;6.00;99.90;;;;;;5025842;28;20070;-65
2024/02/01 09:42:49;;;;;;;;;;;6.00;99.90;;;;;;5015884;28;20079;-64
2024/02/01 09:45:16;;;;;;;52.85;7.78;;;6.10;99.90;;;;;;5013306;28;19964;-65
2024/02/01 09:47:43;;;;;;;48.35;7.65;;;6.20;99.90;;;;;;5017504;28;20142;-65
2024/02/01 09:50:18;;;;;;;13.93;1.92;;;6.20;99.90;;;;;;5000052;28;20045;-65
2024/02/01 09:52:46;;;;;;;64.00;9.07;;;6.30;99.90;;;;;;5019691;28;20053;-65
2024/02/01 09:55:18;;;;;;;53.20;6.63;;;6.30;99.90;;;;;;5018658;28;20049;-65
2024/02/01 09:57:49;;;;;;;44.33;8.20;;;6.40;99.90;;;;;;5019489;28;20053;-65
2024/02/01 10:00:18;;;;;;;48.45;5.60;;;6.40;99.90;;;;;;5020749;28;20107;-65
2024/02/01 10:02:49;;;;;;;25.25;3.17;;;6.40;99.90;;;;;;5017763;28;20057;-65
2024/02/01 10:05:15;;;;;;;14.63;2.88;;;6.50;99.90;;;;;;5022521;28;20120;-64
2024/02/01 10:07:41;;;;;;;31.92;4.03;;;6.60;99.90;;;;;;5011512;28;20056;-65
2024/02/01 10:10:13;;;;;;;52.67;6.57;;;6.60;99.90;;;;;;5019618;28;20452;-65
2024/02/01 10:12:41;;;;;;;35.72;4.70;;;6.70;99.90;;;;;;5022248;28;20492;-64
2024/02/01 10:15:11;;;;;;;26.48;3.55;;;6.70;99.90;;;;;;5017768;28;20045;-64
2024/02/01 10:17:47;;;;;;;54.85;8.25;;;6.80;99.90;;;;;;5022196;28;20089;-65
2024/02/01 10:20:41;;;;;;;11.95;2.00;;;6.90;99.90;;;;;;5016165;28;20065;-65
2024/02/01 10:23:19;;;;;;;28.63;4.53;;;7.00;99.90;;;;;;5016404;28;20057;-64
2024/02/01 10:25:54;;;;;;;66.50;9.35;;;7.20;99.90;;;;;;5023729;28;20118;-65
2024/02/01 10:28:25;;;;;;;50.88;9.40;;;7.30;99.90;;;;;;5037982;28;20049;-64
2024/02/01 10:30:52;;;;;;;63.40;9.63;;;7.40;99.90;;;;;;5024246;28;20068;-64
2024/02/01 10:33:25;;;;;;;54.00;8.52;;;7.40;99.90;;;;;;5017338;28;20045;-65
2024/02/01 10:35:53;;;;;;;64.63;10.57;;;7.40;99.90;;;;;;5025168;28;20098;-65
2024/02/01 10:38:23;;;;;;;38.30;7.40;;;7.40;99.90;;;;;;5024580;28;20336;-64
2024/02/01 10:41:10;;;;;;;61.15;11.48;;;7.40;99.90;;;;;;5017237;28;20488;-65
2024/02/01 11:35:46;;;;;;;55.95;11.05;;;8.00;99.90;;;;;;5069121;27;20452;-63
2024/02/01 11:38:12;;;;;;;44.65;8.57;;;8.00;99.90;;;;;;5042568;28;20095;-63
2024/02/01 11:40:42;;;;;;;47.08;10.50;;;8.00;99.90;;;;;;5054196;28;20133;-63
2024/02/01 11:43:09;;;;;;;56.35;9.23;;;8.00;99.90;;;;;;5050149;28;20078;-63
2024/02/01 11:45:34;;;;;;;54.85;10.13;;;8.00;99.90;;;;;;5049855;28;20079;-64
2024/02/01 11:48:00;;;;;;;57.58;11.15;;;8.00;99.90;;;;;;5043505;28;20037;-64
2024/02/01 11:50:26;;;;;;;47.63;8.02;;;8.00;99.90;;;;;;5034771;28;20048;-63
2024/02/01 11:53:09;;;;;;;60.45;8.60;;;8.00;99.90;;;;;;5059193;28;20171;-63
2024/02/01 11:55:35;;;;;;;57.47;9.77;;;8.00;99.90;;;;;;5043152;28;20203;-63
2024/02/01 11:58:01;;;;;;;50.20;10.60;;;8.00;99.90;;;;;;5034273;28;20079;-63
2024/02/01 12:00:27;;;;;;;48.42;9.73;;;8.00;99.90;;;;;;5050686;28;20069;-63
2024/02/01 12:02:53;;;;;;;41.70;9.80;;;8.00;99.90;;;;;;5055323;28;20587;-63
2024/02/01 12:05:20;;;;;;;47.05;9.50;;;7.90;99.90;;;;;;5053326;28;20486;-63
2024/02/01 12:07:47;;;;;;;57.47;8.73;;;8.00;99.90;;;;;;5044660;28;20045;-63
2024/02/01 12:10:16;;;;;;;50.78;7.97;;;8.10;99.90;;;;;;5051030;28;20049;-63
2024/02/01 12:12:45;;;;;;;56.10;8.25;;;8.10;99.90;;;;;;5055318;28;20091;-63
2024/02/01 12:15:12;;;;;;;47.00;9.43;;;8.20;99.90;;;;;;5042664;28;20061;-63
2024/02/01 12:17:50;;;;;;;44.92;7.45;;;8.20;99.90;;;;;;5042024;28;20037;-63
2024/02/01 12:20:17;;;;;;;37.78;8.57;;;8.30;99.90;;;;;;5046046;28;20049;-63
2024/02/01 12:22:48;;;;;;;40.35;7.78;;;8.20;99.90;;;;;;5035361;28;20064;-63
2024/02/01 12:25:15;;;;;;;;;;;8.20;99.90;;;;;;5055414;28;20052;-63
2024/02/01 12:27:45;;;;;;;54.13;7.85;;;8.20;99.90;;;;;;5049896;28;19940;-63
2024/02/01 12:30:14;;;;;;;48.63;9.00;;;8.20;99.90;;;;;;5049152;28;20048;-63
2024/02/01 12:32:46;;;;;;;43.88;8.00;;;8.30;99.90;;;;;;5055258;28;20835;-63
2024/02/01 12:35:17;;;;;;;54.40;8.82;;;8.30;99.90;;;;;;5035893;28;20076;-63
2024/02/01 12:37:43;;;;;;;45.95;8.30;;;8.30;99.90;;;;;;5030512;28;20385;-63
2024/02/01 12:40:11;;;;;;;44.28;8.63;;;8.20;99.90;;;;;;5036473;28;20047;-63
2024/02/01 12:42:41;;;;;;;48.20;8.27;;;8.20;99.90;;;;;;5028908;28;20124;-62
2024/02/01 12:45:08;;;;;;;41.65;7.57;;;8.30;99.90;;;;;;5030181;28;20052;-63
2024/02/01 12:47:37;;;;;;;43.70;8.25;;;8.30;99.90;;;;;;5026131;28;20045;-62
2024/02/01 12:50:07;;;;;;;46.67;9.48;;;8.30;99.90;;;;;;5038067;28;20044;-62
2024/02/01 12:52:34;;;;;;;45.08;8.57;;;8.30;99.90;;;;;;5036192;28;20061;-62
2024/02/01 12:55:00;;;;;;;41.25;8.90;;;8.30;99.90;;;;;;5035459;28;20098;-62
2024/02/01 12:57:27;;;;;;;45.47;7.35;;;8.30;99.90;;;;;;5040100;28;20046;-62
2024/02/01 12:59:57;;;;;;;48.85;8.20;;;8.30;99.90;;;;;;5031239;28;20091;-62
2024/02/01 13:02:25;;;;;;;35.38;6.75;;;8.40;99.90;;;;;;5038399;28;20049;-62
2024/02/01 13:04:52;;;;;;;39.72;8.43;;;8.30;99.90;;;;;;5042955;28;20338;-62
2024/02/01 13:07:19;;;;;;;36.15;7.20;;;8.30;99.90;;;;;;5023932;28;20049;-62
2024/02/01 13:09:45;;;;;;;42.45;7.72;;;8.20;99.90;;;;;;5041996;28;20449;-62
2024/02/01 13:12:21;;;;;;;48.30;8.57;;;8.20;99.90;;;;;;5038518;28;20053;-63
2024/02/01 13:14:59;;;;;;;38.90;8.88;;;8.20;99.90;;;;;;5039556;28;20128;-63
2024/02/01 13:17:36;;;;;;;48.03;8.65;;;8.20;99.90;;;;;;5035489;28;20049;-62
2024/02/01 13:20:18;;;;;;;46.75;7.60;;;8.20;99.90;;;;;;5033243;28;20187;-62
2024/02/01 13:22:49;;;;;;;42.78;8.55;;;8.30;99.90;;;;;;5036703;28;20486;-62
2024/02/01 13:25:20;;;;;;;45.63;8.50;;;8.20;99.90;;;;;;5037353;28;20491;-63
2024/02/01 13:27:52;;;;;;;47.65;7.95;;;8.20;99.90;;;;;;5033247;28;20482;-62
2024/02/01 13:30:20;;;;;;;47.33;9.10;;;8.10;99.90;;;;;;5031237;28;20049;-62
2024/02/01 13:32:48;;;;;;;33.72;6.47;;;8.10;99.90;;;;;;5039996;28;20443;-62
2024/02/01 13:35:14;;;;;;;50.20;9.23;;;8.10;99.90;;;;;;5033736;28;20547;-62
2024/02/01 13:37:40;;;;;;;45.05;8.60;;;8.20;99.90;;;;;;5031381;28;20095;-63
2024/02/01 13:40:14;;;;;;;36.35;8.10;;;8.10;99.90;;;;;;5043172;28;20076;-62
2024/02/01 13:42:41;;;;;;;44.80;7.97;;;8.10;99.90;;;;;;5038030;28;20128;-62
2024/02/01 13:45:07;;;;;;;43.03;8.75;;;8.00;99.90;;;;;;5036291;28;20037;-64
2024/02/01 13:47:33;;;;;;;45.65;8.95;;;8.00;99.90;;;;;;5029787;28;20084;-62
2024/02/01 13:49:59;;;;;;;36.53;6.40;;;8.10;99.90;;;;;;5025976;28;20088;-63
2024/02/01 13:52:24;;;;;;;33.03;7.38;;;8.00;99.90;;;;;;5043892;28;20041;-62
2024/02/01 13:54:51;;;;;;;45.85;10.07;;;8.10;99.90;;;;;;5038274;28;20136;-63
2024/02/01 13:57:16;;;;;;;48.47;8.90;;;8.10;99.90;;;;;;5027524;28;20045;-62
2024/02/01 13:59:42;;;;;;;54.47;9.07;;;8.10;99.90;;;;;;5033357;28;20550;-62
2024/02/01 14:02:13;;;;;;;45.75;8.10;;;8.20;99.90;;;;;;5039241;28;20136;-62
2024/02/01 14:04:39;;;;;;;40.85;7.47;;;8.20;99.90;;;;;;5034200;28;20053;-62
2024/02/01 14:07:06;;;;;;;36.97;7.63;;;8.20;99.90;;;;;;5035729;28;20037;-63
2024/02/01 14:09:32;;;;;;;44.42;8.90;;;8.10;99.90;;;;;;5037540;28;20064;-62
2024/02/01 14:12:01;;;;;;;35.53;6.43;;;8.10;99.90;;;;;;5037100;28;20068;-62
2024/02/01 14:14:29;;;;;;;38.53;6.18;;;8.10;99.90;;;;;;5019616;28;20037;-62
2024/02/01 14:16:55;;;;;;;30.60;3.35;;;8.10;99.90;;;;;;5029903;28;20048;-62
2024/02/01 14:19:22;;;;;;;44.17;6.93;;;8.10;99.90;;;;;;5035557;28;20041;-62
2024/02/01 14:21:48;;;;;;;34.45;6.78;;;8.10;99.90;;;;;;5027560;28;20049;-62
2024/02/01 14:24:14;;;;;;;44.42;9.23;;;8.00;99.90;;;;;;5031364;28;20545;-63
2024/02/01 14:26:41;;;;;;;42.17;6.95;;;8.00;99.90;;;;;;5028307;28;20152;-62
2024/02/01 14:29:07;;;;;;;34.38;6.95;;;8.00;99.90;;;;;;5035066;28;20052;-62
2024/02/01 14:31:34;;;;;;;33.88;7.05;;;7.90;99.90;;;;;;5038199;28;20037;-62
2024/02/01 14:34:00;;;;;;;43.03;7.07;;;7.90;99.90;;;;;;5036079;28;20056;-62
2024/02/01 14:36:26;;;;;;;39.22;5.78;;;7.90;99.90;;;;;;5039756;28;20507;-62
2024/02/01 14:38:51;;;;;;;42.70;7.35;;;7.90;99.90;;;;;;5035562;28;20060;-62
2024/02/01 14:41:17;;;;;;;37.50;6.43;;;7.90;99.90;;;;;;5033639;28;20055;-62
2024/02/01 14:43:43;;;;;;;27.15;4.90;;;7.80;99.90;;;;;;5030553;28;20052;-62
2024/02/01 14:46:11;;;;;;;39.42;6.55;;;7.80;99.90;;;;;;5016084;28;20057;-62
2024/02/01 14:48:37;;;;;;;34.55;5.43;;;7.80;99.90;;;;;;5033871;28;20036;-61